createdAt,value
2022-10-26T00:02:26.612Z,2.30
2022-10-26T00:04:53.847Z,2.07
2022-10-26T00:07:21.098Z,3.63
2022-10-26T00:09:48.832Z,3.33
2022-10-26T00:12:16.221Z,4.50
2022-10-26T00:14:44.632Z,2.97
2022-10-26T00:17:11.863Z,4.03
2022-10-26T00:19:39.223Z,4.10
2022-10-26T00:22:06.498Z,1.83
2022-10-26T00:24:33.728Z,2.33
2022-10-26T00:27:01.140Z,2.80
2022-10-26T00:29:29.172Z,2.37
2022-10-26T00:31:56.350Z,2.83
2022-10-26T00:34:23.888Z,2.50
2022-10-26T00:36:51.230Z,2.90
2022-10-26T00:39:18.551Z,2.07
2022-10-26T00:41:45.800Z,2.37
2022-10-26T00:44:36.061Z,6.10
2022-10-26T00:47:05.330Z,2.57
2022-10-26T00:49:32.688Z,2.73
2022-10-26T00:52:00.294Z,2.70
2022-10-26T00:54:27.828Z,2.27
2022-10-26T00:56:56.561Z,4.27
2022-10-26T00:59:24.353Z,3.47
2022-10-26T01:01:51.955Z,3.00
2022-10-26T01:04:19.733Z,1.60
2022-10-26T01:06:48.075Z,4.83
2022-10-26T01:09:15.379Z,3.33
2022-10-26T01:11:42.676Z,4.00
2022-10-26T01:14:11.877Z,3.23
2022-10-26T01:19:47.884Z,3.03
2022-10-26T01:22:15.199Z,3.93
2022-10-26T01:24:48.803Z,4.77
2022-10-26T01:27:18.959Z,3.87
2022-10-26T01:30:00.517Z,4.57
2022-10-26T01:32:36.012Z,1.80
2022-10-26T01:35:06.598Z,2.40
2022-10-26T01:37:36.922Z,2.20
2022-10-26T01:40:08.644Z,5.20
2022-10-26T01:42:38.943Z,2.43
2022-10-26T01:45:08.376Z,9.47
2022-10-26T01:47:38.693Z,3.17
2022-10-26T01:50:06.997Z,1.93
2022-10-26T01:52:34.619Z,4.03
2022-10-26T01:55:24.928Z,3.73
2022-10-26T01:57:53.053Z,4.07
2022-10-26T02:00:21.012Z,5.53
2022-10-26T02:03:07.514Z,3.23
2022-10-26T02:05:41.205Z,4.00
2022-10-26T02:08:11.726Z,2.10
2022-10-26T02:10:42.096Z,3.90
2022-10-26T02:13:24.391Z,3.70
2022-10-26T02:16:01.787Z,3.27
2022-10-26T02:18:58.577Z,2.57
2022-10-26T02:21:29.324Z,4.60
2022-10-26T02:23:58.421Z,3.83
2022-10-26T02:26:28.917Z,3.20
2022-10-26T02:28:58.976Z,2.13
2022-10-26T02:31:26.871Z,4.77
2022-10-26T02:33:56.183Z,6.50
2022-10-26T02:36:26.544Z,3.17
2022-10-26T02:38:55.127Z,2.20
2022-10-26T02:41:24.036Z,2.43
2022-10-26T02:43:58.366Z,3.40
2022-10-26T02:46:27.067Z,3.07
2022-10-26T02:48:54.697Z,2.23
2022-10-26T02:51:35.945Z,4.53
2022-10-26T02:54:11.462Z,4.70
2022-10-26T02:56:48.269Z,3.93
2022-10-26T02:59:16.710Z,4.23
2022-10-26T03:01:45.278Z,5.07
2022-10-26T03:04:12.875Z,6.70
2022-10-26T03:06:40.290Z,2.83
2022-10-26T03:09:07.796Z,2.87
2022-10-26T03:11:36.167Z,4.43
2022-10-26T03:14:03.737Z,4.23
2022-10-26T03:16:31.543Z,6.00
2022-10-26T03:18:59.513Z,5.73
2022-10-26T03:21:27.366Z,6.87
2022-10-26T03:23:56.116Z,4.20
2022-10-26T03:26:24.074Z,9.33
2022-10-26T03:28:51.677Z,3.83
2022-10-26T03:31:20.081Z,4.73
2022-10-26T03:33:47.451Z,3.87
2022-10-26T03:36:14.664Z,3.47
2022-10-26T03:38:42.079Z,4.93
2022-10-26T03:41:09.390Z,3.40
2022-10-26T03:43:36.623Z,2.70
2022-10-26T03:46:03.886Z,6.13
2022-10-26T03:48:31.508Z,2.43
2022-10-26T03:50:59.512Z,2.00
2022-10-26T03:53:27.448Z,3.73
2022-10-26T03:55:54.883Z,3.50
2022-10-26T03:58:22.480Z,2.33
2022-10-26T04:00:49.863Z,2.40
2022-10-26T04:03:17.111Z,2.35
2022-10-26T04:05:44.358Z,2.73
2022-10-26T04:08:12.069Z,4.87
2022-10-26T04:10:39.468Z,3.97
2022-10-26T04:13:06.786Z,3.63
2022-10-26T04:15:34.656Z,4.80
2022-10-26T04:18:03.413Z,4.78
2022-10-26T04:20:32.232Z,5.43
2022-10-26T04:23:03.890Z,3.93
2022-10-26T04:25:33.177Z,4.53
2022-10-26T04:28:01.934Z,5.17
2022-10-26T04:30:32.064Z,3.20
2022-10-26T04:32:59.466Z,4.30
2022-10-26T04:35:27.424Z,5.27
2022-10-26T04:38:12.944Z,4.00
2022-10-26T04:40:40.890Z,4.27
2022-10-26T04:43:12.323Z,2.75
2022-10-26T04:45:39.749Z,3.80
2022-10-26T04:48:08.767Z,6.27
2022-10-26T04:50:36.251Z,4.05
2022-10-26T04:53:03.868Z,5.07
2022-10-26T04:55:31.281Z,6.33
2022-10-26T04:58:01.172Z,8.83
2022-10-26T05:00:30.461Z,6.50
2022-10-26T05:03:01.832Z,5.43
2022-10-26T05:05:31.741Z,4.50
2022-10-26T05:07:59.411Z,3.37
2022-10-26T05:10:27.667Z,3.50
2022-10-26T05:12:55.867Z,3.57
2022-10-26T05:15:23.817Z,2.50
2022-10-26T05:18:03.267Z,3.23
2022-10-26T05:20:32.016Z,4.63
2022-10-26T05:23:01.412Z,4.33
2022-10-26T05:25:30.709Z,3.57
2022-10-26T05:27:59.458Z,2.23
2022-10-26T05:30:27.429Z,3.50
2022-10-26T05:32:56.070Z,5.13
2022-10-26T05:35:24.025Z,3.47
2022-10-26T05:37:52.006Z,2.57
2022-10-26T05:40:20.237Z,3.03
2022-10-26T05:42:48.070Z,2.53
2022-10-26T05:45:16.005Z,3.63
2022-10-26T05:47:44.466Z,2.90
2022-10-26T05:50:13.492Z,5.93
2022-10-26T05:52:45.038Z,4.47
2022-10-26T05:55:14.205Z,3.53
2022-10-26T05:57:42.553Z,2.97
2022-10-26T06:00:11.687Z,5.30
2022-10-26T06:03:02.562Z,3.83
2022-10-26T06:05:34.105Z,3.07
2022-10-26T06:08:02.044Z,6.20
2022-10-26T06:10:29.760Z,4.40
2022-10-26T06:12:57.840Z,6.20
2022-10-26T06:15:25.405Z,4.90
2022-10-26T06:18:01.473Z,5.27
2022-10-26T06:20:32.828Z,8.77
2022-10-26T06:23:15.881Z,6.20
2022-10-26T06:26:01.833Z,7.03
2022-10-26T06:28:38.922Z,6.77
2022-10-26T06:31:06.520Z,5.40
2022-10-26T06:33:34.001Z,6.93
2022-10-26T06:36:10.938Z,3.70
2022-10-26T06:38:39.234Z,7.37
2022-10-26T06:41:07.034Z,5.80
2022-10-26T06:43:36.093Z,5.13
2022-10-26T06:46:09.503Z,5.07
2022-10-26T06:48:46.339Z,6.67
2022-10-26T06:51:16.107Z,6.03
2022-10-26T06:53:47.373Z,4.40
2022-10-26T06:56:15.040Z,6.13
2022-10-26T06:58:43.000Z,5.50
2022-10-26T07:01:12.504Z,5.50
2022-10-26T07:03:40.380Z,5.87
2022-10-26T07:06:07.933Z,6.10
2022-10-26T07:08:35.408Z,5.63
2022-10-26T07:11:02.943Z,5.27
2022-10-26T07:13:30.290Z,5.80
2022-10-26T07:15:57.774Z,6.27
2022-10-26T07:18:25.261Z,4.90
2022-10-26T07:20:53.268Z,6.72
2022-10-26T07:23:23.431Z,5.47
2022-10-26T07:25:51.664Z,8.80
2022-10-26T07:28:19.874Z,6.38
2022-10-26T07:30:47.510Z,6.25
2022-10-26T07:33:15.724Z,6.87
2022-10-26T07:35:43.709Z,5.80
2022-10-26T07:38:12.335Z,5.55
2022-10-26T07:40:40.107Z,7.10
2022-10-26T07:43:07.701Z,6.45
2022-10-26T07:45:36.946Z,7.78
2022-10-26T07:48:04.747Z,7.18
2022-10-26T07:50:32.016Z,5.40
2022-10-26T07:53:00.170Z,6.72
2022-10-26T07:55:28.276Z,4.90
2022-10-26T07:57:56.324Z,5.78
2022-10-26T08:00:24.115Z,5.05
2022-10-26T08:02:51.683Z,5.82
2022-10-26T08:05:19.007Z,6.80
2022-10-26T08:07:46.482Z,4.88
2022-10-26T08:10:14.789Z,5.22
2022-10-26T08:12:43.087Z,5.75
2022-10-26T08:15:10.926Z,4.63
2022-10-26T08:17:38.187Z,6.60
2022-10-26T08:20:05.637Z,5.03
2022-10-26T08:22:32.981Z,5.10
2022-10-26T08:25:00.235Z,9.82
2022-10-26T08:27:27.694Z,4.18
2022-10-26T08:29:55.026Z,5.85
2022-10-26T08:32:22.287Z,5.07
2022-10-26T08:34:49.617Z,8.60
2022-10-26T08:37:16.952Z,4.32
2022-10-26T08:39:44.370Z,6.25
2022-10-26T08:42:14.998Z,3.35
2022-10-26T08:44:42.209Z,5.50
2022-10-26T08:49:52.178Z,5.18
2022-10-26T08:52:23.888Z,2.83
2022-10-26T08:54:56.490Z,3.17
2022-10-26T08:57:28.502Z,3.38
2022-10-26T09:00:01.117Z,5.32
2022-10-26T09:02:28.717Z,3.58
2022-10-26T09:04:59.345Z,6.90
2022-10-26T09:07:33.292Z,4.20
2022-10-26T09:10:09.105Z,6.85
2022-10-26T09:12:51.895Z,6.50
2022-10-26T09:15:31.625Z,6.22
2022-10-26T09:18:17.812Z,3.78
2022-10-26T09:21:03.774Z,6.63
2022-10-26T09:23:40.353Z,6.10
2022-10-26T09:26:13.577Z,5.78
2022-10-26T09:28:41.754Z,5.57
2022-10-26T09:31:14.286Z,5.28
2022-10-26T09:33:41.863Z,5.53
2022-10-26T09:36:19.962Z,5.35
2022-10-26T09:38:54.436Z,5.15
2022-10-26T09:41:28.339Z,3.70
2022-10-26T09:44:03.280Z,7.05
2022-10-26T09:46:50.455Z,2.80
2022-10-26T09:49:19.122Z,3.67
2022-10-26T09:51:46.536Z,5.78
2022-10-26T09:54:18.339Z,7.13
2022-10-26T09:56:47.850Z,3.72
2022-10-26T09:59:16.184Z,5.97
2022-10-26T10:01:43.767Z,3.22
2022-10-26T10:04:14.277Z,4.28
2022-10-26T10:06:42.024Z,7.53
2022-10-26T10:09:12.409Z,8.77
2022-10-26T10:11:55.213Z,3.25
2022-10-26T10:14:43.467Z,6.18
2022-10-26T10:17:20.708Z,4.82
2022-10-26T10:19:48.436Z,4.72
2022-10-26T10:22:15.698Z,4.45
2022-10-26T10:24:44.300Z,4.35
2022-10-26T10:27:15.876Z,2.88
2022-10-26T10:29:47.938Z,5.15
2022-10-26T10:32:16.252Z,5.30
2022-10-26T10:34:44.146Z,6.05
2022-10-26T10:37:27.026Z,6.78
2022-10-26T10:39:59.194Z,7.35
2022-10-26T10:42:47.616Z,4.45
2022-10-26T10:45:22.512Z,4.85
2022-10-26T10:48:03.344Z,2.22
2022-10-26T10:50:31.010Z,5.05
2022-10-26T10:53:14.956Z,3.88
2022-10-26T10:55:46.190Z,3.95
2022-10-26T10:58:42.498Z,5.03
2022-10-26T11:01:23.541Z,2.65
2022-10-26T11:04:12.427Z,4.38
2022-10-26T11:06:41.920Z,7.07
2022-10-26T11:09:12.559Z,4.93
2022-10-26T11:11:45.980Z,4.35
2022-10-26T11:14:13.602Z,3.80
2022-10-26T11:16:53.167Z,3.85
2022-10-26T11:19:26.780Z,4.75
2022-10-26T11:21:55.266Z,4.05
2022-10-26T11:24:32.484Z,6.68
2022-10-26T11:27:12.033Z,7.95
2022-10-26T11:29:40.306Z,3.20
2022-10-26T11:32:19.960Z,3.55
2022-10-26T11:34:53.776Z,3.85
2022-10-26T11:37:37.757Z,2.85
2022-10-26T11:40:23.913Z,4.55
2022-10-26T11:42:53.697Z,3.97
2022-10-26T11:45:26.591Z,4.88
2022-10-26T11:47:56.694Z,2.80
2022-10-26T11:50:27.023Z,5.43
2022-10-26T11:52:59.006Z,3.38
2022-10-26T11:55:26.273Z,4.13
2022-10-26T11:57:55.295Z,5.25
2022-10-26T12:00:23.499Z,3.55
2022-10-26T12:02:57.649Z,4.47
2022-10-26T12:05:27.879Z,5.72
2022-10-26T12:07:57.455Z,6.88
2022-10-26T12:10:27.972Z,5.03
2022-10-26T12:13:01.655Z,5.45
2022-10-26T12:18:54.590Z,4.65
2022-10-26T12:21:24.595Z,6.32
2022-10-26T12:23:58.007Z,8.13
2022-10-26T12:26:25.380Z,6.50
2022-10-26T12:29:05.133Z,8.40
2022-10-26T12:31:38.895Z,4.70
2022-10-26T12:34:26.753Z,2.13
2022-10-26T12:36:56.841Z,4.93
2022-10-26T12:39:40.769Z,7.55
2022-10-26T12:42:11.625Z,5.43
2022-10-26T12:44:48.359Z,4.00
2022-10-26T12:47:31.172Z,5.60
2022-10-26T12:50:02.101Z,5.03
2022-10-26T12:52:34.606Z,5.03
2022-10-26T12:55:25.524Z,5.53
2022-10-26T12:58:01.995Z,6.40
2022-10-26T13:00:30.846Z,4.60
2022-10-26T13:03:17.417Z,2.67
2022-10-26T13:05:44.721Z,6.53
2022-10-26T13:08:12.975Z,3.20
2022-10-26T13:10:43.853Z,4.22
2022-10-26T13:13:22.254Z,6.32
2022-10-26T13:15:56.861Z,5.13
2022-10-26T13:18:24.587Z,5.28
2022-10-26T13:20:54.861Z,2.50
2022-10-26T13:23:29.829Z,5.25
2022-10-26T13:26:14.944Z,4.97
2022-10-26T13:28:42.231Z,3.38
2022-10-26T13:31:18.522Z,4.38
2022-10-26T13:33:47.313Z,6.03
2022-10-26T13:36:34.889Z,3.83
2022-10-26T13:39:03.993Z,5.10
2022-10-26T13:41:35.597Z,4.85
2022-10-26T13:44:15.356Z,3.25
2022-10-26T13:46:46.824Z,5.72
2022-10-26T13:49:22.987Z,4.45
2022-10-26T13:51:51.311Z,3.63
2022-10-26T13:54:27.907Z,5.10
2022-10-26T13:57:03.074Z,4.55
2022-10-26T13:59:31.583Z,2.05
2022-10-26T14:02:09.510Z,4.80
2022-10-26T14:04:36.908Z,4.90
2022-10-26T14:07:04.158Z,5.25
2022-10-26T14:09:31.419Z,5.32
2022-10-26T14:11:59.758Z,16.63
2022-10-26T14:14:28.767Z,16.30
2022-10-26T14:16:56.574Z,7.63
2022-10-26T14:19:29.113Z,3.58
2022-10-26T14:21:56.921Z,5.07
2022-10-26T14:24:47.182Z,3.63
2022-10-26T14:27:18.854Z,4.13
2022-10-26T14:30:03.603Z,4.82
2022-10-26T14:32:34.057Z,33.17
2022-10-26T14:35:01.393Z,8.10
2022-10-26T14:37:28.609Z,7.53
2022-10-26T14:39:55.924Z,4.50
2022-10-26T14:42:29.312Z,3.88
2022-10-26T14:44:57.461Z,5.13
2022-10-26T14:47:26.051Z,8.38
2022-10-26T14:49:53.952Z,7.88
2022-10-26T14:52:25.594Z,4.10
2022-10-26T14:54:59.724Z,3.60
2022-10-26T14:57:31.764Z,6.55
2022-10-26T15:00:03.131Z,7.22
2022-10-26T15:02:33.575Z,5.75
2022-10-26T15:05:02.555Z,4.78
2022-10-26T15:07:41.052Z,5.75
2022-10-26T15:10:28.331Z,4.53
2022-10-26T15:12:55.570Z,5.18
2022-10-26T15:15:24.073Z,5.25
2022-10-26T15:17:56.295Z,3.67
2022-10-26T15:20:24.685Z,4.10
2022-10-26T15:22:53.742Z,6.13
2022-10-26T15:25:23.171Z,4.88
2022-10-26T15:27:51.890Z,5.18
2022-10-26T15:30:26.840Z,5.28
2022-10-26T15:32:57.207Z,5.60
2022-10-26T15:35:24.620Z,6.05
2022-10-26T15:37:53.006Z,7.15
2022-10-26T15:40:20.535Z,6.72
2022-10-26T15:42:53.025Z,6.03
2022-10-26T15:45:25.616Z,6.72
2022-10-26T15:47:53.450Z,4.68
2022-10-26T15:50:25.485Z,7.30
2022-10-26T15:52:57.251Z,3.83
2022-10-26T15:55:24.595Z,7.65
2022-10-26T15:57:53.153Z,5.63
2022-10-26T16:00:20.681Z,6.88
2022-10-26T16:02:47.980Z,9.88
2022-10-26T16:05:16.330Z,12.27
2022-10-26T16:07:44.793Z,22.20
2022-10-26T16:10:17.980Z,20.88
2022-10-26T16:12:45.303Z,18.58
2022-10-26T16:15:16.979Z,19.42
2022-10-26T16:17:44.314Z,15.75
2022-10-26T16:20:14.352Z,15.85
2022-10-26T16:22:46.910Z,17.17
2022-10-26T16:25:14.159Z,12.27
2022-10-26T16:27:44.686Z,15.38
2022-10-26T16:30:13.107Z,15.52
2022-10-26T16:32:41.046Z,21.23
2022-10-26T16:35:08.847Z,27.63
2022-10-26T16:37:36.195Z,34.17
2022-10-26T16:40:04.060Z,34.25
2022-10-26T16:42:32.843Z,29.08
2022-10-26T16:45:02.764Z,26.42
2022-10-26T16:47:35.635Z,23.35
2022-10-26T16:50:03.465Z,13.10
2022-10-26T16:52:30.910Z,12.88
2022-10-26T16:54:58.170Z,16.15
2022-10-26T16:57:25.524Z,15.65
2022-10-26T16:59:56.139Z,9.77
2022-10-26T17:02:25.043Z,12.27
2022-10-26T17:04:52.572Z,14.60
2022-10-26T17:07:19.846Z,7.78
2022-10-26T17:09:47.191Z,9.65
2022-10-26T17:12:14.772Z,11.07
2022-10-26T17:14:42.207Z,14.38
2022-10-26T17:17:09.719Z,16.58
2022-10-26T17:19:37.831Z,35.00
2022-10-26T17:22:07.971Z,39.78
2022-10-26T17:24:37.179Z,32.72
2022-10-26T17:27:04.639Z,34.08
2022-10-26T17:29:31.903Z,26.98
2022-10-26T17:31:59.334Z,20.58
2022-10-26T17:34:27.123Z,16.08
2022-10-26T17:36:54.910Z,14.82
2022-10-26T17:39:22.146Z,20.75
2022-10-26T17:41:49.503Z,24.70
2022-10-26T17:44:16.884Z,26.33
2022-10-26T17:46:44.151Z,31.95
2022-10-26T17:49:11.404Z,59.42
2022-10-26T17:51:38.769Z,61.33
2022-10-26T17:54:06.111Z,36.25
2022-10-26T17:56:34.436Z,40.50
2022-10-26T17:59:02.661Z,27.73
2022-10-26T18:01:31.843Z,33.28
2022-10-26T18:03:59.768Z,24.45
2022-10-26T18:06:27.019Z,19.67
2022-10-26T18:08:54.286Z,16.67
2022-10-26T18:11:26.522Z,19.45
2022-10-26T18:13:55.807Z,24.08
2022-10-26T18:16:23.713Z,18.90
2022-10-26T18:19:00.710Z,20.88
2022-10-26T18:21:29.784Z,17.10
2022-10-26T18:23:57.231Z,22.42
2022-10-26T18:26:26.551Z,26.98
2022-10-26T18:28:54.003Z,22.23
2022-10-26T18:31:23.050Z,16.33
2022-10-26T18:33:56.404Z,10.48
2022-10-26T18:36:24.240Z,11.48
2022-10-26T18:38:51.690Z,15.57
2022-10-26T18:41:20.680Z,13.68
2022-10-26T18:43:52.456Z,15.82
2022-10-26T18:46:24.490Z,24.83
2022-10-26T18:48:52.330Z,21.88
2022-10-26T18:51:21.227Z,24.63
2022-10-26T18:53:48.937Z,17.67
2022-10-26T18:56:17.377Z,13.73
2022-10-26T18:58:46.137Z,14.50
2022-10-26T19:01:13.573Z,19.83
2022-10-26T19:03:41.467Z,15.38
2022-10-26T19:06:16.674Z,15.43
2022-10-26T19:08:46.243Z,18.88
2022-10-26T19:11:14.783Z,18.05
2022-10-26T19:13:42.269Z,23.98
2022-10-26T19:16:21.740Z,28.67
2022-10-26T19:18:58.750Z,21.05
2022-10-26T19:21:28.243Z,15.70
2022-10-26T19:23:57.089Z,17.13
2022-10-26T19:26:25.707Z,14.95
2022-10-26T19:28:57.575Z,14.80
2022-10-26T19:31:27.184Z,13.70
2022-10-26T19:33:58.188Z,9.98
2022-10-26T19:36:27.498Z,13.05
2022-10-26T19:38:55.466Z,15.70
2022-10-26T19:41:23.703Z,10.48
2022-10-26T19:43:51.204Z,13.77
2022-10-26T19:46:20.610Z,14.05
2022-10-26T19:48:52.528Z,14.48
2022-10-26T19:51:20.346Z,15.87
2022-10-26T19:53:47.725Z,18.27
2022-10-26T19:56:15.543Z,19.48
2022-10-26T19:58:43.798Z,18.08
2022-10-26T20:01:12.312Z,17.08
2022-10-26T20:03:39.870Z,17.83
2022-10-26T20:06:08.608Z,21.42
2022-10-26T20:08:36.227Z,18.48
2022-10-26T20:11:04.239Z,17.37
2022-10-26T20:13:31.763Z,19.08
2022-10-26T20:15:59.105Z,18.85
2022-10-26T20:18:26.961Z,16.08
2022-10-26T20:20:54.378Z,12.80
2022-10-26T20:23:21.876Z,17.47
2022-10-26T20:25:50.028Z,16.03
2022-10-26T20:28:18.549Z,11.80
2022-10-26T20:30:46.412Z,12.93
2022-10-26T20:33:13.956Z,13.93
2022-10-26T20:35:41.255Z,14.93
2022-10-26T20:38:14.868Z,13.83
2022-10-26T20:40:42.366Z,11.50
2022-10-26T20:43:18.443Z,15.93
2022-10-26T20:45:46.309Z,13.43
2022-10-26T20:48:13.714Z,17.30
2022-10-26T20:50:41.809Z,16.10
2022-10-26T20:53:18.929Z,17.20
2022-10-26T20:56:03.114Z,15.80
2022-10-26T20:58:41.660Z,14.80
2022-10-26T21:01:17.385Z,14.30
2022-10-26T21:03:44.793Z,15.03
2022-10-26T21:06:12.287Z,19.33
2022-10-26T21:08:39.825Z,27.47
2022-10-26T21:11:07.282Z,25.40
2022-10-26T21:13:34.539Z,21.20
2022-10-26T21:16:05.769Z,25.27
2022-10-26T21:18:33.668Z,17.27
2022-10-26T21:21:01.526Z,20.23
2022-10-26T21:23:35.292Z,20.55
2022-10-26T21:26:02.882Z,17.40
2022-10-26T21:28:34.779Z,17.33
2022-10-26T21:31:03.004Z,7.60
2022-10-26T21:33:34.178Z,8.13
2022-10-26T21:36:01.987Z,9.73
2022-10-26T21:38:29.640Z,7.03
2022-10-26T21:41:04.670Z,5.53
2022-10-26T21:43:32.503Z,9.33
2022-10-26T21:46:03.389Z,9.13
2022-10-26T21:48:31.773Z,4.73
2022-10-26T21:50:59.103Z,6.13
2022-10-26T21:53:27.619Z,7.67
2022-10-26T21:56:02.148Z,12.10
2022-10-26T21:58:29.953Z,6.80
2022-10-26T22:01:07.413Z,7.53
2022-10-26T22:03:35.018Z,7.17
2022-10-26T22:06:02.750Z,7.93
2022-10-26T22:08:30.226Z,6.80
2022-10-26T22:10:57.841Z,9.80
2022-10-26T22:13:25.422Z,9.40
2022-10-26T22:16:06.601Z,10.87
2022-10-26T22:18:37.773Z,14.37
2022-10-26T22:21:06.999Z,13.27
2022-10-26T22:23:38.650Z,14.73
2022-10-26T22:26:07.703Z,15.70
2022-10-26T22:28:39.958Z,14.67
2022-10-26T22:31:14.732Z,11.00
2022-10-26T22:33:42.497Z,12.40
2022-10-26T22:36:11.534Z,11.27
2022-10-26T22:38:38.895Z,10.03
2022-10-26T22:41:06.565Z,9.57
2022-10-26T22:43:33.974Z,10.80
2022-10-26T22:46:02.361Z,13.37
2022-10-26T22:48:29.653Z,10.20
2022-10-26T22:50:58.396Z,11.23
2022-10-26T22:53:26.069Z,10.70
2022-10-26T22:55:53.314Z,10.30
2022-10-26T22:58:20.603Z,10.40
2022-10-26T23:00:48.204Z,9.37
2022-10-26T23:03:18.002Z,14.87
2022-10-26T23:05:49.012Z,9.87
2022-10-26T23:08:16.418Z,11.83
2022-10-26T23:10:43.725Z,7.30
2022-10-26T23:13:10.985Z,5.40
2022-10-26T23:15:38.221Z,8.77
2022-10-26T23:18:05.942Z,6.90
2022-10-26T23:20:33.736Z,7.87
2022-10-26T23:23:01.519Z,8.57
2022-10-26T23:25:29.617Z,5.33
2022-10-26T23:27:56.820Z,10.77
2022-10-26T23:30:24.102Z,9.00
2022-10-26T23:32:51.699Z,6.90
2022-10-26T23:35:19.274Z,12.10
2022-10-26T23:37:46.485Z,8.33
2022-10-26T23:40:13.769Z,7.37
2022-10-26T23:42:41.087Z,10.10
2022-10-26T23:45:08.895Z,9.83
2022-10-26T23:47:36.203Z,9.83
2022-10-26T23:50:03.658Z,6.40
2022-10-26T23:52:31.155Z,10.43
2022-10-26T23:54:58.648Z,8.87
2022-10-26T23:57:25.893Z,7.77
2022-10-26T23:59:53.415Z,11.07
